KMSY METAR and TAF | Updated Today

KMSY METAR

Louis Armstrong New Orleans International Airport

Observation time: 36 min. ago

KMSY 302053Z 35013G21KT 10SM BKN250 19/06 A3020 RMK AO2 SLP231 T01890056 53003

Need help? Read our tutorial on how to read METARs or read the parsed version below.

Louis Armstrong New Orleans International Airport (KMSY) METAR

  • Weather conditions on Wed, 30 Nov 2022 20:53:00 +0000 (36 min. ago):
  • Present conditions: Dry
  • Clouds: Broken sky at 7620 meters
  • Visibility: 16093 meters
  • Wind: 350 degrees at 13 knots
  • Temperature: 19 celsius
  • Dew point: 6 celsius
  • Pressure: 30.2 inHg
  • Remarks: AO2 SLP231 T01890056 53003


Useful to know...

KMSY TAF

Louis Armstrong New Orleans International Airport

KMSY 301720Z 3018/0124 01014G24KT P6SM BKN250 FM010700 05012KT P6SM SKC
Observation time: 4:09 hr. ago
Need help? Read our tutorial on how to read TAFs or read the parsed version below.

Parsed version of TAF for Louis Armstrong New Orleans International Airport (KMSY)

  • From 30 November at 18:00 UTC, to day 01 of the month at 24:00 UTC
  • Clouds: Broken sky at 7620 meters
  • Wind: 10 degrees at 14
  • From day 1 of the month at 07:00 UTC
  • Clouds: No significant changes expected
  • Wind: 50 degrees at 12

Airports near KMSY

KHUM Weather
Region: Houma

Houma Terrebonne Airport

Not found in our database